Independence of the Seas — C6WW4 — position and weather

sailwx.info

Track history (hours):
 
Tides and Currents Weather Stations Pressure Air Temp Water Temp Dewpoint Dewpoint Depression Visibility Wind Speed Wind Dir Waves Ship Positions

Independence of the Seas

Last reported at 2019-Sep-21 10:28 UTC. Time now 2019-Sep-21 11:00 UTC.
Position N 28°28' W 016°14'.

Length 339 m; draft 9 m.

Type: Passenger vessel. MMSI: 309374000.

Date/timePositionNaut miles runAvg speedWind from/ knotsBaromVisibWave heightAir tempDewpointWater temp
2019-Sep-21 10:28N 28°28' W 016°14'0 0.0
2019-Sep-21 09:58N 28°28' W 016°14'0 0.0
2019-Sep-21 09:28N 28°28' W 016°14'0 0.0
2019-Sep-21 08:58N 28°28' W 016°14'0 0.0
2019-Sep-21 08:28N 28°28' W 016°14'0 0.0
2019-Sep-21 07:58N 28°28' W 016°14'0 0.0
2019-Sep-21 07:28N 28°28' W 016°14'0 0.0
2019-Sep-21 06:58N 28°28' W 016°14'0 0.0
2019-Sep-21 06:28N 28°28' W 016°14'0 0.0
2019-Sep-21 05:58N 28°28' W 016°14'0 0.1
2019-Sep-21 05:30N 28°28' W 016°14'3 5.8
2019-Sep-21 05:00N 28°27' W 016°11'5 9.4
2019-Sep-21 04:30N 28°26' W 016°06'510.4
2019-Sep-21 04:00N 28°29' W 016°02'510.3
2019-Sep-21 03:30N 28°32' W 015°58'510.1
2019-Sep-21 03:00N 28°36' W 015°54'045.9
2019-Sep-21 03:00N 28°36' W 015°54'510.9 330 / 81020.210.8 22.018.723.0
2019-Sep-21 02:30N 28°40' W 015°50'5 9.6
2019-Sep-21 02:00N 28°43' W 015°45'5 8.9
2019-Sep-21 01:30N 28°45' W 015°41'4 7.8
2019-Sep-21 01:00N 28°43' W 015°37'611.5
2019-Sep-21 00:30N 28°37' W 015°37'4 8.5
2019-Sep-21 00:00N 28°35' W 015°33'4 8.1
2019-Sep-20 23:30N 28°38' W 015°30'3 5.3
2019-Sep-20 23:00N 28°36' W 015°27'7719.6
2019-Sep-20 23:00N 28°30' W 015°24'4 7.2 020 / 61021.6 0.5 22.218.420.0
2019-Sep-20 22:30N 28°33' W 015°27'4 8.3
2019-Sep-20 22:00N 28°30' W 015°23'4 8.3
2019-Sep-20 21:30N 28°27' W 015°20'4 8.2
2019-Sep-20 21:00N 28°23' W 015°19'111135.5
2019-Sep-20 21:00N 28°12' W 015°18'816.0 350 / 121020.7 0.5 22.418.621.0
2019-Sep-20 20:30N 28°20' W 015°19'3 6.1
2019-Sep-20 20:00N 28°17' W 015°20'3 6.7
2019-Sep-20 19:30N 28°14' W 015°21'4 7.1
2019-Sep-20 19:00N 28°10' W 015°22'3 6.3
2019-Sep-20 18:30N 28°07' W 015°23'2 4.5
2019-Sep-20 18:00N 28°08' W 015°25'0 0.1
2019-Sep-20 17:27N 28°08' W 015°25'3 6.0
2019-Sep-20 17:00N 28°06' W 015°24'371.7 320 / 91022.010.8 24.319.2
2019-Sep-20 16:57N 28°08' W 015°26'0 0.0
2019-Sep-20 16:29N 28°08' W 015°26'0 0.0
2019-Sep-20 15:59N 28°08' W 015°26'0 0.0
2019-Sep-20 15:23N 28°08' W 015°26'0 0.0
2019-Sep-20 14:53N 28°08' W 015°26'0 0.0
2019-Sep-20 14:29N 28°08' W 015°25'0 0.0
2019-Sep-20 13:56N 28°08' W 015°26'0 0.0
2019-Sep-20 13:26N 28°08' W 015°25'0 0.0
2019-Sep-20 12:59N 28°08' W 015°25'0 0.0
2019-Sep-20 12:26N 28°08' W 015°25'0 0.0
2019-Sep-20 11:59N 28°08' W 015°25'0 0.0
2019-Sep-20 11:26N 28°08' W 015°25'3 6.3
2019-Sep-20 11:00N 28°06' W 015°24'3368.6 360 / 111022.727.0 22.817.222.0
2019-Sep-20 10:59N 28°08' W 015°25'0 0.0
2019-Sep-20 10:29N 28°08' W 015°25'0 0.0
2019-Sep-20 09:59N 28°08' W 015°25'0 0.0
2019-Sep-20 09:29N 28°08' W 015°25'0 0.0
2019-Sep-20 08:59N 28°08' W 015°25'0 0.0
2019-Sep-20 08:29N 28°08' W 015°25'0 0.0
2019-Sep-20 07:59N 28°08' W 015°25'0 0.0
2019-Sep-20 07:29N 28°08' W 015°26'0 0.1
2019-Sep-20 07:00N 28°08' W 015°25'3 5.0
2019-Sep-20 06:30N 28°07' W 015°23'611.0
2019-Sep-20 06:00N 28°06' W 015°17'154.3
2019-Sep-20 06:00N 28°06' W 015°18'714.4 350 / 161022.010.8 22.118.0
2019-Sep-20 05:30N 28°05' W 015°10'612.7
2019-Sep-20 05:00N 28°04' W 015°03'5428.8
2019-Sep-20 05:00N 28°00' W 015°00'4 8.7 010 / 201022.0 5.4 21.918.4
2019-Sep-20 04:30N 28°02' W 014°56'612.7
2019-Sep-20 04:00N 27°59' W 014°49'612.6
2019-Sep-20 03:30N 27°57' W 014°43'612.8
2019-Sep-20 03:00N 27°54' W 014°37'151.8
2019-Sep-20 03:00N 27°54' W 014°36'612.2 010 / 231019.310.8 21.918.422.0
2019-Sep-20 02:30N 27°51' W 014°30'712.5
2019-Sep-20 01:58N 27°49' W 014°23'612.2
2019-Sep-20 01:30N 27°48' W 014°17'612.5
2019-Sep-20 01:00N 27°50' W 014°10'612.6
2019-Sep-20 00:30N 27°51' W 014°03'612.3
2019-Sep-19 23:59N 27°53' W 013°56'612.3
2019-Sep-19 23:30N 27°55' W 013°49'612.2
2019-Sep-19 23:00N 27°59' W 013°45'11807.8
2019-Sep-19 23:00N 28°06' W 013°36'611.4 020 / 211021.6 0.5 21.918.420.0
2019-Sep-19 22:30N 28°05' W 013°42'612.4
2019-Sep-19 22:00N 28°10' W 013°39'612.6
2019-Sep-19 21:30N 28°16' W 013°36'1426.2
2019-Sep-19 21:00N 28°24' W 013°24'8176.6 010 / 161021.0 0.5 22.118.520.0
2019-Sep-19 20:57N 28°22' W 013°33'512.1
2019-Sep-19 20:30N 28°27' W 013°30'612.2
2019-Sep-19 20:00N 28°32' W 013°27'611.9
2019-Sep-19 19:29N 28°38' W 013°27'612.1
2019-Sep-19 18:58N 28°45' W 013°28'612.9
2019-Sep-19 18:30N 28°50' W 013°30'613.0
2019-Sep-19 18:00N 28°57' W 013°32'1 2.2
2019-Sep-19 17:25N 28°58' W 013°32'0 0.0
2019-Sep-19 16:52N 28°58' W 013°32'0 0.0
2019-Sep-19 16:16N 28°58' W 013°32'0 0.0
2019-Sep-19 15:58N 28°58' W 013°32'0 0.0
2019-Sep-19 15:28N 28°58' W 013°32'0 0.0
2019-Sep-19 14:34N 28°58' W 013°32'0 0.0
2019-Sep-19 14:16N 28°58' W 013°32'0 0.0
2019-Sep-19 13:58N 28°58' W 013°32'0 0.0
2019-Sep-19 13:22N 28°58' W 013°32'0 0.0
2019-Sep-19 12:46N 28°58' W 013°32'0 0.0
2019-Sep-19 12:28N 28°58' W 013°32'0 0.0
2019-Sep-19 11:58N 28°58' W 013°32'0 0.0
2019-Sep-19 11:22N 28°58' W 013°32'411.2
2019-Sep-19 11:00N 28°54' W 013°30'419.7 040 / 121021.827.0 24.018.223.0
2019-Sep-19 10:46N 28°58' W 013°32'0 0.0
2019-Sep-19 10:28N 28°58' W 013°32'0 0.0
2019-Sep-19 09:40N 28°58' W 013°32'0 0.0
2019-Sep-19 09:28N 28°58' W 013°32'0 0.0
2019-Sep-19 08:37N 28°58' W 013°32'0 0.0
2019-Sep-19 08:22N 28°58' W 013°32'0 0.0
2019-Sep-19 07:55N 28°58' W 013°32'0 0.2
2019-Sep-19 07:30N 28°58' W 013°32'3 5.5
2019-Sep-19 07:00N 28°58' W 013°29'713.3
2019-Sep-19 06:29N 29°04' W 013°25'713.6
2019-Sep-19 06:00N 29°06' W 013°18'1522.8 030 / 131023.0 5.4 21.117.7
2019-Sep-19 05:20N 29°21' W 013°16'616.4
2019-Sep-19 05:00N 29°26' W 013°14'1116.6
2019-Sep-19 04:20N 29°37' W 013°10'516.5
2019-Sep-19 04:00N 29°42' W 013°08'5416.5
2019-Sep-19 00:45N 30°33' W 012°48'1114.3
2019-Sep-19 00:00N 30°42' W 012°42'2626.1 010 / 151022.210.8 20.817.623.0
2019-Sep-18 23:00N 31°06' W 012°30'3215.9 010 / 141023.0 0.5 21.117.720.0
2019-Sep-18 21:00N 31°36' W 012°18'3712.5 010 / 121022.6 0.5 21.917.720.0
2019-Sep-18 18:00N 32°12' W 012°06'1313.0 360 / 101024.1 5.4 22.316.9
2019-Sep-18 17:00N 32°24' W 012°00'8917.8 010 / 101024.110.8 22.417.2
2019-Sep-18 12:00N 33°48' W 011°24'3215.8 320 / 31025.9 22.022.022.2
2019-Sep-18 10:00N 34°18' W 011°12'5012.6 090 / 31018.3 0.5 22.117.320.0
2019-Sep-18 06:00N 35°06' W 010°54'2020.5 220 / 51019.0 2.2 21.217.3
2019-Sep-18 05:00N 35°24' W 010°42'7017.6 260 / 111018.0 2.2 21.517.3
2019-Sep-18 01:00N 36°30' W 010°12'5627.9 280 / 61016.410.8 21.217.318.0
2019-Sep-17 23:00N 37°24' W 009°54'4422.2 300 / 51016.710.8 20.816.718.0
2019-Sep-17 21:00N 38°06' W 009°36'918.8 290 / 121015.8 0.5 20.116.519.0
2019-Sep-17 20:30N 37°58' W 009°42'918.9
2019-Sep-17 20:01N 38°07' W 009°38'918.8
2019-Sep-17 19:31N 38°16' W 009°34'918.8
2019-Sep-17 19:00N 38°24' W 009°30'918.8
2019-Sep-17 18:31N 38°33' W 009°26'918.0
2019-Sep-17 18:01N 38°40' W 009°19'4242.0
2019-Sep-17 18:00N 38°36' W 009°18'715.3 290 / 161018.0 2.2 20.515.8
2019-Sep-17 17:30N 38°41' W 009°11'3 6.1
2019-Sep-17 17:00N 38°42' W 009°08'0 0.0
2019-Sep-17 16:30N 38°42' W 009°08'0 0.0
2019-Sep-17 16:00N 38°42' W 009°08'0 0.0
2019-Sep-17 15:30N 38°42' W 009°08'0 0.0
2019-Sep-17 15:00N 38°42' W 009°08'0 0.0
2019-Sep-17 14:30N 38°42' W 009°08'0 0.0
2019-Sep-17 14:00N 38°42' W 009°08'0 0.0
2019-Sep-17 13:30N 38°42' W 009°08'0 0.0
2019-Sep-17 13:00N 38°42' W 009°08'0 0.0
2019-Sep-17 12:30N 38°42' W 009°08'0 0.0
2019-Sep-17 12:00N 38°42' W 009°08'0 0.0
2019-Sep-17 11:30N 38°42' W 009°08'0 0.0
2019-Sep-17 11:00N 38°42' W 009°08'0 0.0
2019-Sep-17 10:30N 38°42' W 009°08'0 0.0
2019-Sep-17 10:00N 38°42' W 009°08'0 0.0
2019-Sep-17 09:30N 38°42' W 009°08'0 0.0
2019-Sep-17 09:00N 38°42' W 009°08'0 0.0
2019-Sep-17 08:30N 38°42' W 009°08'0 0.0
2019-Sep-17 08:00N 38°42' W 009°08'0 0.0
2019-Sep-17 07:30N 38°42' W 009°08'0 0.0
2019-Sep-17 07:01N 38°42' W 009°08'1 2.3
2019-Sep-17 06:31N 38°42' W 009°09'5 9.6
2019-Sep-17 06:00N 38°41' W 009°15'714.0
2019-Sep-17 05:30N 38°37' W 009°23'815.0
2019-Sep-17 05:00N 38°36' W 009°32'2102.0
2019-Sep-17 05:00N 38°36' W 009°30'816.3 110 / 31018.0 0.3 17.816.5
2019-Sep-17 04:30N 38°38' W 009°40'611.9
2019-Sep-17 04:00N 38°43' W 009°42'714.1
2019-Sep-17 03:30N 38°50' W 009°42'714.8
2019-Sep-17 03:00N 38°58' W 009°43'815.1
2019-Sep-17 02:30N 39°05' W 009°43'815.6
2019-Sep-17 02:00N 39°13' W 009°44'816.3
2019-Sep-17 01:30N 39°21' W 009°45'3 6.7
2019-Sep-17 01:00N 39°24' W 009°42'4924.4 090 / 151017.210.8 17.615.418.0
2019-Sep-16 23:00N 40°12' W 009°30'1179.4 150 / 81018.2 5.4 17.515.318.0
2019-Sep-16 22:51N 40°03' W 009°39'5328.7
2019-Sep-16 21:00N 40°54' W 009°18'3712.4 140 / 91017.9 0.1 16.915.518.0
2019-Sep-16 18:00N 41°30' W 009°06'1918.5 130 / 81019.0 0.0 16.715.0
2019-Sep-16 17:00N 41°48' W 009°00'30 2.7 150 / 51019.0 1.1 17.314.7
2019-Sep-16 06:00N 42°18' W 009°00'5317.8 050 / 131019.0 1.1 16.714.6
2019-Sep-16 03:00N 42°48' W 010°00'8922.3 020 / 401020.0 1.1 17.316.118.0
2019-Sep-15 23:00N 44°12' W 009°18'4220.9 030 / 211022.9 5.4 18.316.318.0
2019-Sep-15 21:00N 44°48' W 008°48'4013.3 050 / 221023.5 5.4 18.116.316.0
2019-Sep-15 18:00N 45°24' W 008°24'2019.9 040 / 201026.1 5.4 18.315.8
2019-Sep-15 17:00N 45°42' W 008°12'3417.2 040 / 201026.1 2.2 18.315.6
2019-Sep-15 15:00N 46°12' W 007°48'7220.6 040 / 221027.1 5.4 18.115.2
2019-Sep-15 11:31N 47°17' W 007°03'319.2
2019-Sep-15 11:23N 47°19' W 007°01'719.8
2019-Sep-15 11:00N 47°25' W 006°56'2202.8
2019-Sep-15 11:00N 47°24' W 006°54'1121.5 030 / 211027.5 20.415.520.0
2019-Sep-15 10:29N 47°34' W 006°48'1020.8
2019-Sep-15 10:00N 47°43' W 006°42'211308.7
2019-Sep-15 10:00N 48°00' W 006°24'1122.2 040 / 181028.010.8 22.216.118.0
2019-Sep-15 09:30N 47°52' W 006°35'1020.6
2019-Sep-15 09:00N 48°01' W 006°27'1120.2
2019-Sep-15 08:29N 48°10' W 006°20'1020.5
2019-Sep-15 08:00N 48°19' W 006°13'171079.0
2019-Sep-15 08:00N 48°30' W 005°54'6 8.3 010 / 131027.8 1.1 16.913.917.0
2019-Sep-15 07:16N 48°32' W 006°03'519.7
2019-Sep-15 07:00N 48°36' W 005°59'1019.4
2019-Sep-15 06:31N 48°45' W 005°51'918.8
2019-Sep-15 06:00N 48°53' W 005°44'5368.2
2019-Sep-15 06:00N 48°48' W 005°42'1224.1 360 / 111029.1 2.2 16.613.4
2019-Sep-15 05:31N 48°58' W 005°32'917.9
2019-Sep-15 05:00N 49°02' W 005°21'917.6
2019-Sep-15 04:30N 49°07' W 005°09'917.7
2019-Sep-15 04:00N 49°11' W 004°57'918.0
2019-Sep-15 03:30N 49°16' W 004°45'918.5
2019-Sep-15 03:00N 49°20' W 004°33'1019.0
2019-Sep-15 02:30N 49°25' W 004°21'1019.6
2019-Sep-15 02:00N 49°31' W 004°08'1020.2
2019-Sep-15 01:30N 49°36' W 003°54'1020.7
2019-Sep-15 01:00N 49°41' W 003°41'6379.5
2019-Sep-15 01:00N 49°36' W 003°36'1224.1 340 / 71028.410.8 17.413.518.0
2019-Sep-15 00:30N 49°46' W 003°27'1020.6
2019-Sep-15 00:00N 49°51' W 003°13'1020.2
2019-Sep-14 23:30N 49°56' W 002°59'1019.4
2019-Sep-14 23:00N 49°59' W 002°45'171119.2
2019-Sep-14 23:00N 50°00' W 002°18'918.4 340 / 31028.610.8 17.513.618.0
2019-Sep-14 22:31N 50°02' W 002°31'917.5
2019-Sep-14 22:00N 50°05' W 002°18'816.6
2019-Sep-14 21:30N 50°09' W 002°07'815.9
2019-Sep-14 21:00N 50°12' W 001°56'171116.1
2019-Sep-14 21:00N 50°18' W 001°30'1020.2 150 / 41029.510.8 16.712.718.0
2019-Sep-14 20:30N 50°16' W 001°45'815.8
2019-Sep-14 20:01N 50°20' W 001°34'815.8
2019-Sep-14 19:30N 50°24' W 001°24'815.8
2019-Sep-14 19:00N 50°28' W 001°13'5310.2
2019-Sep-14 19:00N 50°30' W 001°06'4 7.3 120 / 61031.110.8 17.112.8
2019-Sep-14 18:30N 50°33' W 001°03'714.1
2019-Sep-14 18:00N 50°40' W 000°59'611.6
2019-Sep-14 17:30N 50°44' W 001°04'917.7
2019-Sep-14 17:00N 50°47' W 001°18'4 8.7
2019-Sep-14 16:30N 50°51' W 001°20'4 8.7
2019-Sep-14 16:00N 50°54' W 001°25'0 0.4
2019-Sep-14 15:30N 50°54' W 001°25'0 0.0
2019-Sep-14 15:00N 50°54' W 001°25'0 0.0
2019-Sep-14 14:30N 50°54' W 001°25'0 0.0
2019-Sep-14 14:01N 50°54' W 001°25'0 0.0
2019-Sep-14 13:27N 50°54' W 001°25'0 0.0
2019-Sep-14 13:00N 50°54' W 001°25'0 0.0
2019-Sep-14 12:30N 50°54' W 001°25'0 0.0
2019-Sep-14 11:57N 50°54' W 001°25'0 0.0
2019-Sep-14 11:27N 50°54' W 001°25'0 0.0
2019-Sep-14 11:00N 50°54' W 001°25'6364.0
2019-Sep-14 11:00N 50°48' W 001°24'612.3 160 / 91033.327.0 19.012.617.0
2019-Sep-14 10:31N 50°54' W 001°25'0 0.0
2019-Sep-14 09:57N 50°54' W 001°25'0 0.0
2019-Sep-14 09:27N 50°54' W 001°25'0 0.0
2019-Sep-14 08:58N 50°54' W 001°25'0 0.0
2019-Sep-14 08:30N 50°54' W 001°25'0 0.0
2019-Sep-14 08:00N 50°54' W 001°25'0 0.0
2019-Sep-14 07:30N 50°54' W 001°25'0 0.0
2019-Sep-14 06:57N 50°54' W 001°25'0 0.0
2019-Sep-14 06:30N 50°54' W 001°25'0 0.0
2019-Sep-14 05:58N 50°54' W 001°25'0 0.0
2019-Sep-14 05:30N 50°54' W 001°25'0 0.0
2019-Sep-14 05:00N 50°54' W 001°25'0 0.0
2019-Sep-14 04:28N 50°54' W 001°25'1 1.8
2019-Sep-14 04:01N 50°53' W 001°24'3 6.9
2019-Sep-14 03:31N 50°51' W 001°20'4 7.4
2019-Sep-14 03:01N 50°47' W 001°19'612.1
2019-Sep-14 02:30N 50°46' W 001°10'816.6
2019-Sep-14 02:01N 50°42' W 000°58'173.1
2019-Sep-14 02:00N 50°42' W 001°00'612.3 050 / 181034.710.8 16.411.619.0
2019-Sep-14 01:30N 50°36' W 000°60'714.8
2019-Sep-14 01:00N 50°31' W 001°08'814.9
2019-Sep-14 00:30N 50°28' W 001°19'714.8
2019-Sep-14 00:00N 50°25' W 001°29'815.6
2019-Sep-13 23:30N 50°21' W 001°40'816.7
2019-Sep-13 23:00N 50°20' W 001°53'917.8
2019-Sep-13 22:30N 50°18' W 002°07'1019.4
2019-Sep-13 22:00N 50°16' W 002°21'1019.6
2019-Sep-13 21:30N 50°14' W 002°37'919.0
2019-Sep-13 21:00N 50°14' W 002°51'918.7
2019-Sep-13 20:30N 50°11' W 003°05'1019.3
2019-Sep-13 20:00N 50°06' W 003°17'1019.5
2019-Sep-13 19:30N 49°59' W 003°29'1019.3
2019-Sep-13 19:00N 49°53' W 003°41'1019.1
2019-Sep-13 18:30N 49°47' W 003°51'1427.8
2019-Sep-13 18:00N 49°36' W 004°06'4 9.7 040 / 151036.1 5.4 16.812.3
2019-Sep-13 17:37N 49°36' W 004°12'319.2
2019-Sep-13 17:26N 49°34' W 004°16'1125.0
2019-Sep-13 17:00N 49°24' W 004°24'4122.9 050 / 181036.1 5.4 17.313.0
2019-Sep-13 16:57N 49°28' W 004°27'1619.0
2019-Sep-13 16:08N 49°18' W 004°44'619.0
2019-Sep-13 15:50N 49°14' W 004°51'619.0
2019-Sep-13 15:30N 49°10' W 004°59'1121.6
2019-Sep-13 15:00N 49°00' W 005°06'4107.2 060 / 151036.1 1.1 15.0
2019-Sep-13 14:57N 49°03' W 005°11'918.9
2019-Sep-13 14:28N 48°57' W 005°20'1122.2
2019-Sep-13 14:00N 48°48' W 005°30'2155.6 030 / 161033.6 2.2 16.013.715.0
2019-Sep-13 13:59N 48°50' W 005°30'1818.5
2019-Sep-13 12:59N 48°36' W 005°48'1018.3
2019-Sep-13 12:27N 48°27' W 005°55'818.0
2019-Sep-13 12:00N 48°20' W 005°60'1218.0
2019-Sep-13 11:19N 48°08' W 006°07'617.7
2019-Sep-13 11:00N 48°03' W 006°10'917.6
2019-Sep-13 10:30N 47°55' W 006°16'917.6
2019-Sep-13 10:00N 47°48' W 006°24'917.4
2019-Sep-13 09:28N 47°40' W 006°31'818.0
2019-Sep-13 09:00N 47°32' W 006°36'918.0
2019-Sep-13 08:30N 47°24' W 006°42'1319.0
2019-Sep-13 07:51N 47°14' W 006°51'720.6
2019-Sep-13 07:30N 47°08' W 006°56'1520.1
2019-Sep-13 06:46N 46°54' W 007°06'2025.8
2019-Sep-13 06:00N 46°36' W 007°18'5919.8 020 / 91032.710.8 17.914.119.0
2019-Sep-13 03:00N 45°42' W 007°54'18520.5 080 / 181034.1 5.4 18.514.0
2019-Sep-12 18:00N 42°54' W 009°42'3618.1 030 / 301028.1 2.2 19.014.3
2019-Sep-12 16:00N 42°18' W 009°48'17220.9 320 / 211025.810.8 19.114.1 9.0
2019-Sep-12 07:46N 39°26' W 009°54'622.1
2019-Sep-12 07:30N 39°20' W 009°54'1021.5
2019-Sep-12 07:00N 39°10' W 009°53'1121.6
2019-Sep-12 06:31N 38°59' W 009°52'1121.5
2019-Sep-12 06:00N 38°48' W 009°51'1121.4
2019-Sep-12 05:30N 38°37' W 009°50'1121.5
2019-Sep-12 05:01N 38°27' W 009°47'10590.4
2019-Sep-12 05:00N 38°18' W 009°42'3 5.3 040 / 171020.710.8 18.213.819.0
2019-Sep-12 04:31N 38°16' W 009°44'1121.9
2019-Sep-12 04:01N 38°06' W 009°41'1122.0
2019-Sep-12 03:31N 37°55' W 009°38'1121.8
2019-Sep-12 03:01N 37°44' W 009°36'5292.9
2019-Sep-12 03:00N 37°42' W 009°30'917.8 020 / 191022.0 5.4 20.614.5
2019-Sep-12 02:31N 37°34' W 009°33'1121.5
2019-Sep-12 02:01N 37°23' W 009°30'1121.6
2019-Sep-12 01:31N 37°13' W 009°26'1121.5
2019-Sep-12 01:01N 37°02' W 009°23'5278.5
2019-Sep-12 01:00N 37°00' W 009°18'816.5 360 / 201018.410.8 19.414.618.0
2019-Sep-12 00:31N 36°52' W 009°19'1122.1
2019-Sep-12 00:01N 36°45' W 009°08'1122.1
2019-Sep-11 23:31N 36°44' W 008°55'1122.0
2019-Sep-11 23:00N 36°43' W 008°41'382550.2
2019-Sep-11 23:00N 36°36' W 007°54'2756.9 260 / 141018.610.8 20.515.517.0
2019-Sep-11 22:31N 36°42' W 008°27'1122.1
2019-Sep-11 22:01N 36°41' W 008°14'1121.9
2019-Sep-11 21:31N 36°41' W 008°00'1121.7
2019-Sep-11 20:59N 36°40' W 007°46'1021.3
2019-Sep-11 20:30N 36°39' W 007°33'5622.4
2019-Sep-11 18:00N 36°30' W 006°24'   290 / 221020.0 5.4 25.116.6
Track history (hours):
 
Tides and Currents Weather Stations Pressure Air Temp Water Temp Dewpoint Dewpoint Depression Visibility Wind Speed Wind Dir Waves Ship Positions

Independence of the Seas

Last reported at 2019-Sep-21 10:28 UTC. Time now 2019-Sep-21 11:00 UTC.
Position N 28°28' W 016°14'.

Length 339 m; draft 9 m.

Type: Passenger vessel. MMSI: 309374000.

Date/timePositionNaut miles runAvg speedWind from/ knotsBaromVisibWave heightAir tempDewpointWater temp
2019-Sep-21 10:28N 28°28' W 016°14'0 0.0
2019-Sep-21 09:58N 28°28' W 016°14'0 0.0
2019-Sep-21 09:28N 28°28' W 016°14'0 0.0
2019-Sep-21 08:58N 28°28' W 016°14'0 0.0
2019-Sep-21 08:28N 28°28' W 016°14'0 0.0
2019-Sep-21 07:58N 28°28' W 016°14'0 0.0
2019-Sep-21 07:28N 28°28' W 016°14'0 0.0
2019-Sep-21 06:58N 28°28' W 016°14'0 0.0
2019-Sep-21 06:28N 28°28' W 016°14'0 0.0
2019-Sep-21 05:58N 28°28' W 016°14'0 0.1
2019-Sep-21 05:30N 28°28' W 016°14'3 5.8
2019-Sep-21 05:00N 28°27' W 016°11'5 9.4
2019-Sep-21 04:30N 28°26' W 016°06'510.4
2019-Sep-21 04:00N 28°29' W 016°02'510.3
2019-Sep-21 03:30N 28°32' W 015°58'510.1
2019-Sep-21 03:00N 28°36' W 015°54'045.9
2019-Sep-21 03:00N 28°36' W 015°54'510.9 330 / 81020.210.8 22.018.723.0
2019-Sep-21 02:30N 28°40' W 015°50'5 9.6
2019-Sep-21 02:00N 28°43' W 015°45'5 8.9
2019-Sep-21 01:30N 28°45' W 015°41'4 7.8
2019-Sep-21 01:00N 28°43' W 015°37'611.5
2019-Sep-21 00:30N 28°37' W 015°37'4 8.5
2019-Sep-21 00:00N 28°35' W 015°33'4 8.1
2019-Sep-20 23:30N 28°38' W 015°30'3 5.3
2019-Sep-20 23:00N 28°36' W 015°27'7719.6
2019-Sep-20 23:00N 28°30' W 015°24'4 7.2 020 / 61021.6 0.5 22.218.420.0
2019-Sep-20 22:30N 28°33' W 015°27'4 8.3
2019-Sep-20 22:00N 28°30' W 015°23'4 8.3
2019-Sep-20 21:30N 28°27' W 015°20'4 8.2
2019-Sep-20 21:00N 28°23' W 015°19'111135.5
2019-Sep-20 21:00N 28°12' W 015°18'816.0 350 / 121020.7 0.5 22.418.621.0
2019-Sep-20 20:30N 28°20' W 015°19'3 6.1
2019-Sep-20 20:00N 28°17' W 015°20'3 6.7
2019-Sep-20 19:30N 28°14' W 015°21'4 7.1
2019-Sep-20 19:00N 28°10' W 015°22'3 6.3
2019-Sep-20 18:30N 28°07' W 015°23'2 4.5
2019-Sep-20 18:00N 28°08' W 015°25'0 0.1
2019-Sep-20 17:27N 28°08' W 015°25'3 6.0
2019-Sep-20 17:00N 28°06' W 015°24'371.7 320 / 91022.010.8 24.319.2
2019-Sep-20 16:57N 28°08' W 015°26'0 0.0
2019-Sep-20 16:29N 28°08' W 015°26'0 0.0
2019-Sep-20 15:59N 28°08' W 015°26'0 0.0
2019-Sep-20 15:23N 28°08' W 015°26'0 0.0
2019-Sep-20 14:53N 28°08' W 015°26'0 0.0
2019-Sep-20 14:29N 28°08' W 015°25'0 0.0
2019-Sep-20 13:56N 28°08' W 015°26'0 0.0
2019-Sep-20 13:26N 28°08' W 015°25'0 0.0
2019-Sep-20 12:59N 28°08' W 015°25'0 0.0
2019-Sep-20 12:26N 28°08' W 015°25'0 0.0
2019-Sep-20 11:59N 28°08' W 015°25'0 0.0
2019-Sep-20 11:26N 28°08' W 015°25'3 6.3
2019-Sep-20 11:00N 28°06' W 015°24'3368.6 360 / 111022.727.0 22.817.222.0
2019-Sep-20 10:59N 28°08' W 015°25'0 0.0
2019-Sep-20 10:29N 28°08' W 015°25'0 0.0
2019-Sep-20 09:59N 28°08' W 015°25'0 0.0
2019-Sep-20 09:29N 28°08' W 015°25'0 0.0
2019-Sep-20 08:59N 28°08' W 015°25'0 0.0
2019-Sep-20 08:29N 28°08' W 015°25'0 0.0
2019-Sep-20 07:59N 28°08' W 015°25'0 0.0
2019-Sep-20 07:29N 28°08' W 015°26'0 0.1
2019-Sep-20 07:00N 28°08' W 015°25'3 5.0
2019-Sep-20 06:30N 28°07' W 015°23'611.0
2019-Sep-20 06:00N 28°06' W 015°17'154.3
2019-Sep-20 06:00N 28°06' W 015°18'714.4 350 / 161022.010.8 22.118.0
2019-Sep-20 05:30N 28°05' W 015°10'612.7
2019-Sep-20 05:00N 28°04' W 015°03'5428.8
2019-Sep-20 05:00N 28°00' W 015°00'4 8.7 010 / 201022.0 5.4 21.918.4
2019-Sep-20 04:30N 28°02' W 014°56'612.7
2019-Sep-20 04:00N 27°59' W 014°49'612.6
2019-Sep-20 03:30N 27°57' W 014°43'612.8
2019-Sep-20 03:00N 27°54' W 014°37'151.8
2019-Sep-20 03:00N 27°54' W 014°36'612.2 010 / 231019.310.8 21.918.422.0
2019-Sep-20 02:30N 27°51' W 014°30'712.5
2019-Sep-20 01:58N 27°49' W 014°23'612.2
2019-Sep-20 01:30N 27°48' W 014°17'612.5
2019-Sep-20 01:00N 27°50' W 014°10'612.6
2019-Sep-20 00:30N 27°51' W 014°03'612.3
2019-Sep-19 23:59N 27°53' W 013°56'612.3
2019-Sep-19 23:30N 27°55' W 013°49'612.2
2019-Sep-19 23:00N 27°59' W 013°45'11807.8
2019-Sep-19 23:00N 28°06' W 013°36'611.4 020 / 211021.6 0.5 21.918.420.0
2019-Sep-19 22:30N 28°05' W 013°42'612.4
2019-Sep-19 22:00N 28°10' W 013°39'612.6
2019-Sep-19 21:30N 28°16' W 013°36'1426.2
2019-Sep-19 21:00N 28°24' W 013°24'8176.6 010 / 161021.0 0.5 22.118.520.0
2019-Sep-19 20:57N 28°22' W 013°33'512.1
2019-Sep-19 20:30N 28°27' W 013°30'612.2
2019-Sep-19 20:00N 28°32' W 013°27'611.9
2019-Sep-19 19:29N 28°38' W 013°27'612.1
2019-Sep-19 18:58N 28°45' W 013°28'612.9
2019-Sep-19 18:30N 28°50' W 013°30'613.0
2019-Sep-19 18:00N 28°57' W 013°32'1 2.2
2019-Sep-19 17:25N 28°58' W 013°32'0 0.0
2019-Sep-19 16:52N 28°58' W 013°32'0 0.0
2019-Sep-19 16:16N 28°58' W 013°32'0 0.0
2019-Sep-19 15:58N 28°58' W 013°32'0 0.0
2019-Sep-19 15:28N 28°58' W 013°32'0 0.0
2019-Sep-19 14:34N 28°58' W 013°32'0 0.0
2019-Sep-19 14:16N 28°58' W 013°32'0 0.0
2019-Sep-19 13:58N 28°58' W 013°32'0 0.0
2019-Sep-19 13:22N 28°58' W 013°32'0 0.0
2019-Sep-19 12:46N 28°58' W 013°32'0 0.0
2019-Sep-19 12:28N 28°58' W 013°32'0 0.0
2019-Sep-19 11:58N 28°58' W 013°32'0 0.0
2019-Sep-19 11:22N 28°58' W 013°32'411.2
2019-Sep-19 11:00N 28°54' W 013°30'419.7 040 / 121021.827.0 24.018.223.0
2019-Sep-19 10:46N 28°58' W 013°32'0 0.0
2019-Sep-19 10:28N 28°58' W 013°32'0 0.0
2019-Sep-19 09:40N 28°58' W 013°32'0 0.0
2019-Sep-19 09:28N 28°58' W 013°32'0 0.0
2019-Sep-19 08:37N 28°58' W 013°32'0 0.0
2019-Sep-19 08:22N 28°58' W 013°32'0 0.0
2019-Sep-19 07:55N 28°58' W 013°32'0 0.2
2019-Sep-19 07:30N 28°58' W 013°32'3 5.5
2019-Sep-19 07:00N 28°58' W 013°29'713.3
2019-Sep-19 06:29N 29°04' W 013°25'713.6
2019-Sep-19 06:00N 29°06' W 013°18'1522.8 030 / 131023.0 5.4 21.117.7
2019-Sep-19 05:20N 29°21' W 013°16'616.4
2019-Sep-19 05:00N 29°26' W 013°14'1116.6
2019-Sep-19 04:20N 29°37' W 013°10'516.5
2019-Sep-19 04:00N 29°42' W 013°08'5416.5
2019-Sep-19 00:45N 30°33' W 012°48'1114.3
2019-Sep-19 00:00N 30°42' W 012°42'2626.1 010 / 151022.210.8 20.817.623.0
2019-Sep-18 23:00N 31°06' W 012°30'3215.9 010 / 141023.0 0.5 21.117.720.0
2019-Sep-18 21:00N 31°36' W 012°18'3712.5 010 / 121022.6 0.5 21.917.720.0
2019-Sep-18 18:00N 32°12' W 012°06'1313.0 360 / 101024.1 5.4 22.316.9
2019-Sep-18 17:00N 32°24' W 012°00'8917.8 010 / 101024.110.8 22.417.2
2019-Sep-18 12:00N 33°48' W 011°24'3215.8 320 / 31025.9 22.022.022.2
2019-Sep-18 10:00N 34°18' W 011°12'5012.6 090 / 31018.3 0.5 22.117.320.0
2019-Sep-18 06:00N 35°06' W 010°54'2020.5 220 / 51019.0 2.2 21.217.3
2019-Sep-18 05:00N 35°24' W 010°42'7017.6 260 / 111018.0 2.2 21.517.3
2019-Sep-18 01:00N 36°30' W 010°12'5627.9 280 / 61016.410.8 21.217.318.0
2019-Sep-17 23:00N 37°24' W 009°54'4422.2 300 / 51016.710.8 20.816.718.0
2019-Sep-17 21:00N 38°06' W 009°36'918.8 290 / 121015.8 0.5 20.116.519.0
2019-Sep-17 20:30N 37°58' W 009°42'918.9
2019-Sep-17 20:01N 38°07' W 009°38'918.8
2019-Sep-17 19:31N 38°16' W 009°34'918.8
2019-Sep-17 19:00N 38°24' W 009°30'918.8
2019-Sep-17 18:31N 38°33' W 009°26'918.0
2019-Sep-17 18:01N 38°40' W 009°19'4242.0
2019-Sep-17 18:00N 38°36' W 009°18'715.3 290 / 161018.0 2.2 20.515.8
2019-Sep-17 17:30N 38°41' W 009°11'3 6.1
2019-Sep-17 17:00N 38°42' W 009°08'0 0.0
2019-Sep-17 16:30N 38°42' W 009°08'0 0.0
2019-Sep-17 16:00N 38°42' W 009°08'0 0.0
2019-Sep-17 15:30N 38°42' W 009°08'0 0.0
2019-Sep-17 15:00N 38°42' W 009°08'0 0.0
2019-Sep-17 14:30N 38°42' W 009°08'0 0.0
2019-Sep-17 14:00N 38°42' W 009°08'0 0.0
2019-Sep-17 13:30N 38°42' W 009°08'0 0.0
2019-Sep-17 13:00N 38°42' W 009°08'0 0.0
2019-Sep-17 12:30N 38°42' W 009°08'0 0.0
2019-Sep-17 12:00N 38°42' W 009°08'0 0.0
2019-Sep-17 11:30N 38°42' W 009°08'0 0.0
2019-Sep-17 11:00N 38°42' W 009°08'0 0.0
2019-Sep-17 10:30N 38°42' W 009°08'0 0.0
2019-Sep-17 10:00N 38°42' W 009°08'0 0.0
2019-Sep-17 09:30N 38°42' W 009°08'0 0.0
2019-Sep-17 09:00N 38°42' W 009°08'0 0.0
2019-Sep-17 08:30N 38°42' W 009°08'0 0.0
2019-Sep-17 08:00N 38°42' W 009°08'0 0.0
2019-Sep-17 07:30N 38°42' W 009°08'0 0.0
2019-Sep-17 07:01N 38°42' W 009°08'1 2.3
2019-Sep-17 06:31N 38°42' W 009°09'5 9.6
2019-Sep-17 06:00N 38°41' W 009°15'714.0
2019-Sep-17 05:30N 38°37' W 009°23'815.0
2019-Sep-17 05:00N 38°36' W 009°32'2102.0
2019-Sep-17 05:00N 38°36' W 009°30'816.3 110 / 31018.0 0.3 17.816.5
2019-Sep-17 04:30N 38°38' W 009°40'611.9
2019-Sep-17 04:00N 38°43' W 009°42'714.1
2019-Sep-17 03:30N 38°50' W 009°42'714.8
2019-Sep-17 03:00N 38°58' W 009°43'815.1
2019-Sep-17 02:30N 39°05' W 009°43'815.6
2019-Sep-17 02:00N 39°13' W 009°44'816.3
2019-Sep-17 01:30N 39°21' W 009°45'3 6.7
2019-Sep-17 01:00N 39°24' W 009°42'4924.4 090 / 151017.210.8 17.615.418.0
2019-Sep-16 23:00N 40°12' W 009°30'1179.4 150 / 81018.2 5.4 17.515.318.0
2019-Sep-16 22:51N 40°03' W 009°39'5328.7
2019-Sep-16 21:00N 40°54' W 009°18'3712.4 140 / 91017.9 0.1 16.915.518.0
2019-Sep-16 18:00N 41°30' W 009°06'1918.5 130 / 81019.0 0.0 16.715.0
2019-Sep-16 17:00N 41°48' W 009°00'30 2.7 150 / 51019.0 1.1 17.314.7
2019-Sep-16 06:00N 42°18' W 009°00'5317.8 050 / 131019.0 1.1 16.714.6
2019-Sep-16 03:00N 42°48' W 010°00'8922.3 020 / 401020.0 1.1 17.316.118.0
2019-Sep-15 23:00N 44°12' W 009°18'4220.9 030 / 211022.9 5.4 18.316.318.0
2019-Sep-15 21:00N 44°48' W 008°48'4013.3 050 / 221023.5 5.4 18.116.316.0
2019-Sep-15 18:00N 45°24' W 008°24'2019.9 040 / 201026.1 5.4 18.315.8
2019-Sep-15 17:00N 45°42' W 008°12'3417.2 040 / 201026.1 2.2 18.315.6
2019-Sep-15 15:00N 46°12' W 007°48'7220.6 040 / 221027.1 5.4 18.115.2
2019-Sep-15 11:31N 47°17' W 007°03'319.2
2019-Sep-15 11:23N 47°19' W 007°01'719.8
2019-Sep-15 11:00N 47°25' W 006°56'2202.8
2019-Sep-15 11:00N 47°24' W 006°54'1121.5 030 / 211027.5 20.415.520.0
2019-Sep-15 10:29N 47°34' W 006°48'1020.8
2019-Sep-15 10:00N 47°43' W 006°42'211308.7
2019-Sep-15 10:00N 48°00' W 006°24'1122.2 040 / 181028.010.8 22.216.118.0
2019-Sep-15 09:30N 47°52' W 006°35'1020.6
2019-Sep-15 09:00N 48°01' W 006°27'1120.2
2019-Sep-15 08:29N 48°10' W 006°20'1020.5
2019-Sep-15 08:00N 48°19' W 006°13'171079.0
2019-Sep-15 08:00N 48°30' W 005°54'6 8.3 010 / 131027.8 1.1 16.913.917.0
2019-Sep-15 07:16N 48°32' W 006°03'519.7
2019-Sep-15 07:00N 48°36' W 005°59'1019.4
2019-Sep-15 06:31N 48°45' W 005°51'918.8
2019-Sep-15 06:00N 48°53' W 005°44'5368.2
2019-Sep-15 06:00N 48°48' W 005°42'1224.1 360 / 111029.1 2.2 16.613.4
2019-Sep-15 05:31N 48°58' W 005°32'917.9
2019-Sep-15 05:00N 49°02' W 005°21'917.6
2019-Sep-15 04:30N 49°07' W 005°09'917.7
2019-Sep-15 04:00N 49°11' W 004°57'918.0
2019-Sep-15 03:30N 49°16' W 004°45'918.5
2019-Sep-15 03:00N 49°20' W 004°33'1019.0
2019-Sep-15 02:30N 49°25' W 004°21'1019.6
2019-Sep-15 02:00N 49°31' W 004°08'1020.2
2019-Sep-15 01:30N 49°36' W 003°54'1020.7
2019-Sep-15 01:00N 49°41' W 003°41'6379.5
2019-Sep-15 01:00N 49°36' W 003°36'1224.1 340 / 71028.410.8 17.413.518.0
2019-Sep-15 00:30N 49°46' W 003°27'1020.6
2019-Sep-15 00:00N 49°51' W 003°13'1020.2
2019-Sep-14 23:30N 49°56' W 002°59'1019.4
2019-Sep-14 23:00N 49°59' W 002°45'171119.2
2019-Sep-14 23:00N 50°00' W 002°18'918.4 340 / 31028.610.8 17.513.618.0
2019-Sep-14 22:31N 50°02' W 002°31'917.5
2019-Sep-14 22:00N 50°05' W 002°18'816.6
2019-Sep-14 21:30N 50°09' W 002°07'815.9
2019-Sep-14 21:00N 50°12' W 001°56'171116.1
2019-Sep-14 21:00N 50°18' W 001°30'1020.2 150 / 41029.510.8 16.712.718.0
2019-Sep-14 20:30N 50°16' W 001°45'815.8
2019-Sep-14 20:01N 50°20' W 001°34'815.8
2019-Sep-14 19:30N 50°24' W 001°24'815.8
2019-Sep-14 19:00N 50°28' W 001°13'5310.2
2019-Sep-14 19:00N 50°30' W 001°06'4 7.3 120 / 61031.110.8 17.112.8
2019-Sep-14 18:30N 50°33' W 001°03'714.1
2019-Sep-14 18:00N 50°40' W 000°59'611.6
2019-Sep-14 17:30N 50°44' W 001°04'917.7
2019-Sep-14 17:00N 50°47' W 001°18'4 8.7
2019-Sep-14 16:30N 50°51' W 001°20'4 8.7
2019-Sep-14 16:00N 50°54' W 001°25'0 0.4
2019-Sep-14 15:30N 50°54' W 001°25'0 0.0
2019-Sep-14 15:00N 50°54' W 001°25'0 0.0
2019-Sep-14 14:30N 50°54' W 001°25'0 0.0
2019-Sep-14 14:01N 50°54' W 001°25'0 0.0
2019-Sep-14 13:27N 50°54' W 001°25'0 0.0
2019-Sep-14 13:00N 50°54' W 001°25'0 0.0
2019-Sep-14 12:30N 50°54' W 001°25'0 0.0
2019-Sep-14 11:57N 50°54' W 001°25'0 0.0
2019-Sep-14 11:27N 50°54' W 001°25'0 0.0
2019-Sep-14 11:00N 50°54' W 001°25'6364.0
2019-Sep-14 11:00N 50°48' W 001°24'612.3 160 / 91033.327.0 19.012.617.0
2019-Sep-14 10:31N 50°54' W 001°25'0 0.0
2019-Sep-14 09:57N 50°54' W 001°25'0 0.0
2019-Sep-14 09:27N 50°54' W 001°25'0 0.0
2019-Sep-14 08:58N 50°54' W 001°25'0 0.0
2019-Sep-14 08:30N 50°54' W 001°25'0 0.0
2019-Sep-14 08:00N 50°54' W 001°25'0 0.0
2019-Sep-14 07:30N 50°54' W 001°25'0 0.0
2019-Sep-14 06:57N 50°54' W 001°25'0 0.0
2019-Sep-14 06:30N 50°54' W 001°25'0 0.0
2019-Sep-14 05:58N 50°54' W 001°25'0 0.0
2019-Sep-14 05:30N 50°54' W 001°25'0 0.0
2019-Sep-14 05:00N 50°54' W 001°25'0 0.0
2019-Sep-14 04:28N 50°54' W 001°25'1 1.8
2019-Sep-14 04:01N 50°53' W 001°24'3 6.9
2019-Sep-14 03:31N 50°51' W 001°20'4 7.4
2019-Sep-14 03:01N 50°47' W 001°19'612.1
2019-Sep-14 02:30N 50°46' W 001°10'816.6
2019-Sep-14 02:01N 50°42' W 000°58'173.1
2019-Sep-14 02:00N 50°42' W 001°00'612.3 050 / 181034.710.8 16.411.619.0
2019-Sep-14 01:30N 50°36' W 000°60'714.8
2019-Sep-14 01:00N 50°31' W 001°08'814.9
2019-Sep-14 00:30N 50°28' W 001°19'714.8
2019-Sep-14 00:00N 50°25' W 001°29'815.6
2019-Sep-13 23:30N 50°21' W 001°40'816.7
2019-Sep-13 23:00N 50°20' W 001°53'917.8
2019-Sep-13 22:30N 50°18' W 002°07'1019.4
2019-Sep-13 22:00N 50°16' W 002°21'1019.6
2019-Sep-13 21:30N 50°14' W 002°37'919.0
2019-Sep-13 21:00N 50°14' W 002°51'918.7
2019-Sep-13 20:30N 50°11' W 003°05'1019.3
2019-Sep-13 20:00N 50°06' W 003°17'1019.5
2019-Sep-13 19:30N 49°59' W 003°29'1019.3
2019-Sep-13 19:00N 49°53' W 003°41'1019.1
2019-Sep-13 18:30N 49°47' W 003°51'1427.8
2019-Sep-13 18:00N 49°36' W 004°06'4 9.7 040 / 151036.1 5.4 16.812.3
2019-Sep-13 17:37N 49°36' W 004°12'319.2
2019-Sep-13 17:26N 49°34' W 004°16'1125.0
2019-Sep-13 17:00N 49°24' W 004°24'4122.9 050 / 181036.1 5.4 17.313.0
2019-Sep-13 16:57N 49°28' W 004°27'1619.0
2019-Sep-13 16:08N 49°18' W 004°44'619.0
2019-Sep-13 15:50N 49°14' W 004°51'619.0
2019-Sep-13 15:30N 49°10' W 004°59'1121.6
2019-Sep-13 15:00N 49°00' W 005°06'4107.2 060 / 151036.1 1.1 15.0
2019-Sep-13 14:57N 49°03' W 005°11'918.9
2019-Sep-13 14:28N 48°57' W 005°20'1122.2
2019-Sep-13 14:00N 48°48' W 005°30'2155.6 030 / 161033.6 2.2 16.013.715.0
2019-Sep-13 13:59N 48°50' W 005°30'1818.5
2019-Sep-13 12:59N 48°36' W 005°48'1018.3
2019-Sep-13 12:27N 48°27' W 005°55'818.0
2019-Sep-13 12:00N 48°20' W 005°60'1218.0
2019-Sep-13 11:19N 48°08' W 006°07'617.7
2019-Sep-13 11:00N 48°03' W 006°10'917.6
2019-Sep-13 10:30N 47°55' W 006°16'917.6
2019-Sep-13 10:00N 47°48' W 006°24'917.4
2019-Sep-13 09:28N 47°40' W 006°31'818.0
2019-Sep-13 09:00N 47°32' W 006°36'918.0
2019-Sep-13 08:30N 47°24' W 006°42'1319.0
2019-Sep-13 07:51N 47°14' W 006°51'720.6
2019-Sep-13 07:30N 47°08' W 006°56'1520.1
2019-Sep-13 06:46N 46°54' W 007°06'2025.8
2019-Sep-13 06:00N 46°36' W 007°18'5919.8 020 / 91032.710.8 17.914.119.0
2019-Sep-13 03:00N 45°42' W 007°54'18520.5 080 / 181034.1 5.4 18.514.0
2019-Sep-12 18:00N 42°54' W 009°42'3618.1 030 / 301028.1 2.2 19.014.3
2019-Sep-12 16:00N 42°18' W 009°48'17220.9 320 / 211025.810.8 19.114.1 9.0
2019-Sep-12 07:46N 39°26' W 009°54'622.1
2019-Sep-12 07:30N 39°20' W 009°54'1021.5
2019-Sep-12 07:00N 39°10' W 009°53'1121.6
2019-Sep-12 06:31N 38°59' W 009°52'1121.5
2019-Sep-12 06:00N 38°48' W 009°51'1121.4
2019-Sep-12 05:30N 38°37' W 009°50'1121.5
2019-Sep-12 05:01N 38°27' W 009°47'10590.4
2019-Sep-12 05:00N 38°18' W 009°42'3 5.3 040 / 171020.710.8 18.213.819.0
2019-Sep-12 04:31N 38°16' W 009°44'1121.9
2019-Sep-12 04:01N 38°06' W 009°41'1122.0
2019-Sep-12 03:31N 37°55' W 009°38'1121.8
2019-Sep-12 03:01N 37°44' W 009°36'5292.9
2019-Sep-12 03:00N 37°42' W 009°30'917.8 020 / 191022.0 5.4 20.614.5
2019-Sep-12 02:31N 37°34' W 009°33'1121.5
2019-Sep-12 02:01N 37°23' W 009°30'1121.6
2019-Sep-12 01:31N 37°13' W 009°26'1121.5
2019-Sep-12 01:01N 37°02' W 009°23'5278.5
2019-Sep-12 01:00N 37°00' W 009°18'816.5 360 / 201018.410.8 19.414.618.0
2019-Sep-12 00:31N 36°52' W 009°19'1122.1
2019-Sep-12 00:01N 36°45' W 009°08'1122.1
2019-Sep-11 23:31N 36°44' W 008°55'1122.0
2019-Sep-11 23:00N 36°43' W 008°41'382550.2
2019-Sep-11 23:00N 36°36' W 007°54'2756.9 260 / 141018.610.8 20.515.517.0
2019-Sep-11 22:31N 36°42' W 008°27'1122.1
2019-Sep-11 22:01N 36°41' W 008°14'1121.9
2019-Sep-11 21:31N 36°41' W 008°00'1121.7
2019-Sep-11 20:59N 36°40' W 007°46'1021.3
2019-Sep-11 20:30N 36°39' W 007°33'5622.4
2019-Sep-11 18:00N 36°30' W 006°24'   290 / 221020.0 5.4 25.116.6

Dump ship's entire track history